Lisbon Trader — A8TV8 — position and weather

sailwx.info

Track history (hours):
 
Tides and Currents Weather Stations Pressure Air Temp Water Temp Dewpoint Dewpoint Depression Visibility Wind Speed Wind Dir Waves Ship Positions

Lisbon Trader

Last reported at 2018-Feb-13 14:27 UTC. Time now 2018-Feb-25 11:34 UTC.
Position N 09°11' W 079°52'.
Warning: this ship's position is 11 days out of date.

Length 180 m; draft 9.8 m.

Type: Cargo ship. MMSI: 636091858.

Date/timePositionNaut miles runAvg speedWind from/ knotsBaromVisibWave heightAir tempDewpointWater temp
2018-Feb-13 14:27N 09°11' W 079°52'4 9.5
2018-Feb-13 14:00N 09°13' W 079°55'3 6.0
2018-Feb-13 13:30N 09°16' W 079°55'0 0.8
2018-Feb-13 13:00N 09°16' W 079°55'0 0.4
2018-Feb-13 12:30N 09°16' W 079°55'0 0.3
2018-Feb-13 12:00N 09°17' W 079°55'0 0.8
2018-Feb-13 11:30N 09°17' W 079°55'2 3.9
2018-Feb-13 11:00N 09°19' W 079°55'3 5.7
2018-Feb-13 10:30N 09°22' W 079°55'0 0.4
2018-Feb-13 09:59N 09°22' W 079°56'0 0.0
2018-Feb-13 09:29N 09°22' W 079°56'0 0.0
2018-Feb-13 08:59N 09°22' W 079°56'0 0.0
2018-Feb-13 08:29N 09°22' W 079°56'0 0.0
2018-Feb-13 07:59N 09°22' W 079°56'0 0.0
2018-Feb-13 07:29N 09°22' W 079°56'0 0.0
2018-Feb-13 06:59N 09°22' W 079°56'0 0.0
2018-Feb-13 06:29N 09°22' W 079°56'0 0.0
2018-Feb-13 05:59N 09°22' W 079°56'0 0.0
2018-Feb-13 05:29N 09°22' W 079°56'0 0.0
2018-Feb-13 04:59N 09°22' W 079°56'0 0.1
2018-Feb-13 04:30N 09°22' W 079°56'0 0.3
2018-Feb-13 03:59N 09°22' W 079°56'1 2.1
2018-Feb-13 03:31N 09°23' W 079°55'3 5.8
2018-Feb-13 03:01N 09°25' W 079°54'3 6.3
2018-Feb-13 02:30N 09°22' W 079°53'1 1.3
2018-Feb-13 02:00N 09°22' W 079°53'0 0.3
2018-Feb-13 01:29N 09°21' W 079°53'0 0.0
2018-Feb-13 00:59N 09°21' W 079°53'0 0.0
2018-Feb-13 00:26N 09°21' W 079°53'0 0.0
2018-Feb-12 23:59N 09°21' W 079°53'0 0.0
2018-Feb-12 23:29N 09°21' W 079°53'0 0.0
2018-Feb-12 22:59N 09°21' W 079°53'0 0.0
2018-Feb-12 22:29N 09°21' W 079°53'0 0.0
2018-Feb-12 21:59N 09°21' W 079°53'0 0.0
2018-Feb-12 21:29N 09°21' W 079°53'0 0.0
2018-Feb-12 20:59N 09°21' W 079°53'0 0.0
2018-Feb-12 20:29N 09°21' W 079°53'0 0.0
2018-Feb-12 19:59N 09°21' W 079°53'0 0.0
2018-Feb-12 19:29N 09°21' W 079°53'0 0.0
2018-Feb-12 18:59N 09°21' W 079°53'0 0.0
2018-Feb-12 18:29N 09°21' W 079°53'0 0.0
2018-Feb-12 17:56N 09°21' W 079°53'0 0.0
2018-Feb-12 17:29N 09°21' W 079°53'0 0.0
2018-Feb-12 16:56N 09°21' W 079°53'0 0.0
2018-Feb-12 16:29N 09°21' W 079°53'0 0.0
2018-Feb-12 15:59N 09°21' W 079°53'0 0.0
2018-Feb-12 15:17N 09°21' W 079°53'0 0.0
2018-Feb-12 14:59N 09°21' W 079°53'0 0.0
2018-Feb-12 14:29N 09°21' W 079°53'0 0.0
2018-Feb-12 13:59N 09°21' W 079°53'0 0.0
2018-Feb-12 13:29N 09°21' W 079°53'0 0.0
2018-Feb-12 12:59N 09°21' W 079°53'0 0.0
2018-Feb-12 12:29N 09°21' W 079°53'0 0.0
2018-Feb-12 12:00N 09°21' W 079°53'1 1.3
2018-Feb-12 11:30N 09°22' W 079°53'1 1.3
2018-Feb-12 10:58N 09°21' W 079°53'0 0.0
2018-Feb-12 10:28N 09°21' W 079°53'0 0.0
2018-Feb-12 09:58N 09°21' W 079°53'0 0.0
2018-Feb-12 09:28N 09°21' W 079°53'0 0.0
2018-Feb-12 08:58N 09°21' W 079°53'0 0.0
2018-Feb-12 08:28N 09°21' W 079°53'0 0.0
2018-Feb-12 07:58N 09°21' W 079°53'0 0.0
2018-Feb-12 07:30N 09°21' W 079°53'1 1.8
2018-Feb-12 06:59N 09°22' W 079°53'2 3.5
2018-Feb-12 06:30N 09°24' W 079°54'3 4.9
2018-Feb-12 05:59N 09°26' W 079°53'2 3.2
2018-Feb-12 05:30N 09°28' W 079°53'1 2.9
2018-Feb-12 05:00N 09°29' W 079°53'2 3.1
2018-Feb-12 04:29N 09°31' W 079°53'3 6.4
2018-Feb-12 04:00N 09°34' W 079°52'711.4
2018-Feb-12 03:24N 09°40' W 079°50'  
2018-Feb-07 09:30N 26°03' W 079°54'510.4
2018-Feb-07 09:00N 26°05' W 079°60'510.0
2018-Feb-07 08:31N 26°05' W 080°05'2 1.8
2018-Feb-07 07:27N 26°06' W 080°07'0 0.0
2018-Feb-07 07:00N 26°06' W 080°07'0 0.0
2018-Feb-07 06:30N 26°06' W 080°07'0 0.0
2018-Feb-07 06:00N 26°06' W 080°07'0 0.0
2018-Feb-07 05:30N 26°06' W 080°07'0 0.0
2018-Feb-07 05:00N 26°06' W 080°07'0 0.0
2018-Feb-07 04:27N 26°06' W 080°07'0 0.0
2018-Feb-07 03:57N 26°06' W 080°07'0 0.0
2018-Feb-07 03:30N 26°06' W 080°07'0 0.0
2018-Feb-07 03:00N 26°06' W 080°07'0 0.0
2018-Feb-07 02:30N 26°06' W 080°07'0 0.0
2018-Feb-07 02:00N 26°06' W 080°07'0 0.0
2018-Feb-07 01:30N 26°06' W 080°07'0 0.0
2018-Feb-07 01:00N 26°06' W 080°07'0 0.0
2018-Feb-07 00:30N 26°06' W 080°07'0 0.0
2018-Feb-07 00:00N 26°06' W 080°07'0 0.0
2018-Feb-06 23:30N 26°06' W 080°07'0 0.0
2018-Feb-06 23:00N 26°06' W 080°07'0 0.0
2018-Feb-06 22:30N 26°06' W 080°07'0 0.0
2018-Feb-06 22:00N 26°06' W 080°07'0 0.0
2018-Feb-06 21:30N 26°06' W 080°07'0 0.0
2018-Feb-06 21:00N 26°06' W 080°07'0 0.0
2018-Feb-06 20:27N 26°06' W 080°07'0 0.0
2018-Feb-06 20:00N 26°06' W 080°07'0 0.0
2018-Feb-06 19:30N 26°06' W 080°07'0 0.0
2018-Feb-06 19:00N 26°06' W 080°07'0 0.0
2018-Feb-06 18:30N 26°06' W 080°07'0 0.0
2018-Feb-06 18:00N 26°06' W 080°07'0 0.0
2018-Feb-06 17:30N 26°06' W 080°07'0 0.0
2018-Feb-06 16:57N 26°06' W 080°07'0 0.0
2018-Feb-06 16:30N 26°06' W 080°07'0 0.0
2018-Feb-06 16:00N 26°06' W 080°07'0 0.0
2018-Feb-06 15:27N 26°06' W 080°07'0 0.0
2018-Feb-06 14:57N 26°06' W 080°07'0 0.0
2018-Feb-06 14:27N 26°06' W 080°07'0 0.0
2018-Feb-06 14:00N 26°06' W 080°07'0 0.0
2018-Feb-06 13:30N 26°06' W 080°07'0 0.0
2018-Feb-06 13:00N 26°06' W 080°07'0 0.0
2018-Feb-06 12:30N 26°06' W 080°07'0 0.0
2018-Feb-06 12:00N 26°06' W 080°07'0 0.0
2018-Feb-06 11:30N 26°06' W 080°07'0 0.0
2018-Feb-06 11:00N 26°06' W 080°07'0 0.0
2018-Feb-06 10:30N 26°06' W 080°07'0 0.0
2018-Feb-06 10:00N 26°06' W 080°07'0 0.0
2018-Feb-06 09:30N 26°06' W 080°07'0 0.0
2018-Feb-06 09:00N 26°06' W 080°07'0 0.0
2018-Feb-06 08:30N 26°06' W 080°07'0 0.0
2018-Feb-06 08:00N 26°06' W 080°07'0 0.0
2018-Feb-06 07:27N 26°06' W 080°07'0 0.0
2018-Feb-06 07:00N 26°06' W 080°07'0 0.0
2018-Feb-06 06:30N 26°06' W 080°07'0 0.0
2018-Feb-06 06:00N 26°06' W 080°07'0 0.0
2018-Feb-06 05:30N 26°06' W 080°07'0 0.0
2018-Feb-06 05:00N 26°06' W 080°07'0 0.0
2018-Feb-06 04:30N 26°06' W 080°07'0 0.0
2018-Feb-06 04:00N 26°06' W 080°07'0 0.0
2018-Feb-06 03:30N 26°06' W 080°07'0 0.0
2018-Feb-06 03:00N 26°06' W 080°07'0 0.0
2018-Feb-06 02:30N 26°06' W 080°07'0 0.0
2018-Feb-06 02:00N 26°06' W 080°07'0 0.0
2018-Feb-06 01:27N 26°06' W 080°07'0 0.0
2018-Feb-06 01:00N 26°06' W 080°07'0 0.0
2018-Feb-06 00:30N 26°06' W 080°07'0 0.0
2018-Feb-06 00:00N 26°06' W 080°07'0 0.0
2018-Feb-05 23:30N 26°06' W 080°07'0 0.0
2018-Feb-05 23:00N 26°06' W 080°07'0 0.0
2018-Feb-05 22:30N 26°06' W 080°07'0 0.0
2018-Feb-05 22:00N 26°06' W 080°07'0 0.0
2018-Feb-05 21:30N 26°06' W 080°07'0 0.0
2018-Feb-05 20:30N 26°06' W 080°07'0 0.0
2018-Feb-05 19:57N 26°06' W 080°07'0 0.0
2018-Feb-05 19:30N 26°06' W 080°07'0 0.0
2018-Feb-05 19:00N 26°06' W 080°07'0 0.0
2018-Feb-05 18:30N 26°06' W 080°07'0 0.0
2018-Feb-05 18:00N 26°06' W 080°07'0 0.0
2018-Feb-05 17:30N 26°06' W 080°07'0 0.0
2018-Feb-05 17:00N 26°06' W 080°07'0 0.0
2018-Feb-05 16:30N 26°06' W 080°07'0 0.0
2018-Feb-05 16:00N 26°06' W 080°07'0 0.0
2018-Feb-05 15:30N 26°06' W 080°07'0 0.0
2018-Feb-05 15:00N 26°06' W 080°07'0 0.0
2018-Feb-05 14:30N 26°06' W 080°07'0 0.0
2018-Feb-05 14:00N 26°06' W 080°07'0 0.0
2018-Feb-05 13:30N 26°06' W 080°07'0 0.0
2018-Feb-05 12:57N 26°06' W 080°07'0 0.0
2018-Feb-05 12:30N 26°06' W 080°07'0 0.0
2018-Feb-05 12:00N 26°06' W 080°07'0 0.0
2018-Feb-05 11:30N 26°06' W 080°07'0 0.0
2018-Feb-05 11:00N 26°06' W 080°07'0 0.0
2018-Feb-05 10:27N 26°06' W 080°07'0 0.0
2018-Feb-05 10:00N 26°06' W 080°07'0 0.0
2018-Feb-05 09:00N 26°06' W 080°07'0 0.0
2018-Feb-05 08:30N 26°06' W 080°07'0 0.0
2018-Feb-05 08:00N 26°06' W 080°07'0 0.0
2018-Feb-05 07:30N 26°06' W 080°07'0 0.0
2018-Feb-05 07:00N 26°06' W 080°07'0 0.0
2018-Feb-05 06:30N 26°06' W 080°07'0 0.0
2018-Feb-05 05:30N 26°06' W 080°07'0 0.0
2018-Feb-05 05:00N 26°06' W 080°07'0 0.0
2018-Feb-05 04:30N 26°06' W 080°07'0 0.0
2018-Feb-05 04:00N 26°06' W 080°07'0 0.0
2018-Feb-05 03:30N 26°06' W 080°07'0 0.0
2018-Feb-05 03:00N 26°06' W 080°07'0 0.0
2018-Feb-05 02:30N 26°06' W 080°07'1 1.2
2018-Feb-05 02:00N 26°06' W 080°07'4 8.4
2018-Feb-05 01:30N 26°05' W 080°02'1 1.0
2018-Feb-05 01:00N 26°04' W 080°02'2 3.6
2018-Feb-05 00:30N 26°04' W 079°60'2 3.4
2018-Feb-05 00:00N 26°03' W 079°58'2 3.1
2018-Feb-04 23:30N 26°03' W 079°57'1 2.3
2018-Feb-04 23:00N 26°02' W 079°57'2 3.2
2018-Feb-04 22:28N 26°03' W 079°55'2 4.7
2018-Feb-04 22:00N 26°04' W 079°54'2 4.3
2018-Feb-04 21:30N 26°05' W 079°52'3 6.1
2018-Feb-04 21:00N 26°06' W 079°48'7 6.6
2018-Feb-04 20:00N 26°05' W 079°41'3 6.6
2018-Feb-04 19:30N 26°05' W 079°37'3 6.2
2018-Feb-04 19:00N 26°07' W 079°34'3 6.6
2018-Feb-04 18:30N 26°09' W 079°31'2 4.6
2018-Feb-04 18:00N 26°11' W 079°30'3 6.9
2018-Feb-04 17:30N 26°14' W 079°30'  
Track history (hours):
 
Tides and Currents Weather Stations Pressure Air Temp Water Temp Dewpoint Dewpoint Depression Visibility Wind Speed Wind Dir Waves Ship Positions

Lisbon Trader

Last reported at 2018-Feb-13 14:27 UTC. Time now 2018-Feb-25 11:34 UTC.
Position N 09°11' W 079°52'.
Warning: this ship's position is 11 days out of date.

Length 180 m; draft 9.8 m.

Type: Cargo ship. MMSI: 636091858.

Date/timePositionNaut miles runAvg speedWind from/ knotsBaromVisibWave heightAir tempDewpointWater temp
2018-Feb-13 14:27N 09°11' W 079°52'4 9.5
2018-Feb-13 14:00N 09°13' W 079°55'3 6.0
2018-Feb-13 13:30N 09°16' W 079°55'0 0.8
2018-Feb-13 13:00N 09°16' W 079°55'0 0.4
2018-Feb-13 12:30N 09°16' W 079°55'0 0.3
2018-Feb-13 12:00N 09°17' W 079°55'0 0.8
2018-Feb-13 11:30N 09°17' W 079°55'2 3.9
2018-Feb-13 11:00N 09°19' W 079°55'3 5.7
2018-Feb-13 10:30N 09°22' W 079°55'0 0.4
2018-Feb-13 09:59N 09°22' W 079°56'0 0.0
2018-Feb-13 09:29N 09°22' W 079°56'0 0.0
2018-Feb-13 08:59N 09°22' W 079°56'0 0.0
2018-Feb-13 08:29N 09°22' W 079°56'0 0.0
2018-Feb-13 07:59N 09°22' W 079°56'0 0.0
2018-Feb-13 07:29N 09°22' W 079°56'0 0.0
2018-Feb-13 06:59N 09°22' W 079°56'0 0.0
2018-Feb-13 06:29N 09°22' W 079°56'0 0.0
2018-Feb-13 05:59N 09°22' W 079°56'0 0.0
2018-Feb-13 05:29N 09°22' W 079°56'0 0.0
2018-Feb-13 04:59N 09°22' W 079°56'0 0.1
2018-Feb-13 04:30N 09°22' W 079°56'0 0.3
2018-Feb-13 03:59N 09°22' W 079°56'1 2.1
2018-Feb-13 03:31N 09°23' W 079°55'3 5.8
2018-Feb-13 03:01N 09°25' W 079°54'3 6.3
2018-Feb-13 02:30N 09°22' W 079°53'1 1.3
2018-Feb-13 02:00N 09°22' W 079°53'0 0.3
2018-Feb-13 01:29N 09°21' W 079°53'0 0.0
2018-Feb-13 00:59N 09°21' W 079°53'0 0.0
2018-Feb-13 00:26N 09°21' W 079°53'0 0.0
2018-Feb-12 23:59N 09°21' W 079°53'0 0.0
2018-Feb-12 23:29N 09°21' W 079°53'0 0.0
2018-Feb-12 22:59N 09°21' W 079°53'0 0.0
2018-Feb-12 22:29N 09°21' W 079°53'0 0.0
2018-Feb-12 21:59N 09°21' W 079°53'0 0.0
2018-Feb-12 21:29N 09°21' W 079°53'0 0.0
2018-Feb-12 20:59N 09°21' W 079°53'0 0.0
2018-Feb-12 20:29N 09°21' W 079°53'0 0.0
2018-Feb-12 19:59N 09°21' W 079°53'0 0.0
2018-Feb-12 19:29N 09°21' W 079°53'0 0.0
2018-Feb-12 18:59N 09°21' W 079°53'0 0.0
2018-Feb-12 18:29N 09°21' W 079°53'0 0.0
2018-Feb-12 17:56N 09°21' W 079°53'0 0.0
2018-Feb-12 17:29N 09°21' W 079°53'0 0.0
2018-Feb-12 16:56N 09°21' W 079°53'0 0.0
2018-Feb-12 16:29N 09°21' W 079°53'0 0.0
2018-Feb-12 15:59N 09°21' W 079°53'0 0.0
2018-Feb-12 15:17N 09°21' W 079°53'0 0.0
2018-Feb-12 14:59N 09°21' W 079°53'0 0.0
2018-Feb-12 14:29N 09°21' W 079°53'0 0.0
2018-Feb-12 13:59N 09°21' W 079°53'0 0.0
2018-Feb-12 13:29N 09°21' W 079°53'0 0.0
2018-Feb-12 12:59N 09°21' W 079°53'0 0.0
2018-Feb-12 12:29N 09°21' W 079°53'0 0.0
2018-Feb-12 12:00N 09°21' W 079°53'1 1.3
2018-Feb-12 11:30N 09°22' W 079°53'1 1.3
2018-Feb-12 10:58N 09°21' W 079°53'0 0.0
2018-Feb-12 10:28N 09°21' W 079°53'0 0.0
2018-Feb-12 09:58N 09°21' W 079°53'0 0.0
2018-Feb-12 09:28N 09°21' W 079°53'0 0.0
2018-Feb-12 08:58N 09°21' W 079°53'0 0.0
2018-Feb-12 08:28N 09°21' W 079°53'0 0.0
2018-Feb-12 07:58N 09°21' W 079°53'0 0.0
2018-Feb-12 07:30N 09°21' W 079°53'1 1.8
2018-Feb-12 06:59N 09°22' W 079°53'2 3.5
2018-Feb-12 06:30N 09°24' W 079°54'3 4.9
2018-Feb-12 05:59N 09°26' W 079°53'2 3.2
2018-Feb-12 05:30N 09°28' W 079°53'1 2.9
2018-Feb-12 05:00N 09°29' W 079°53'2 3.1
2018-Feb-12 04:29N 09°31' W 079°53'3 6.4
2018-Feb-12 04:00N 09°34' W 079°52'711.4
2018-Feb-12 03:24N 09°40' W 079°50'  
2018-Feb-07 09:30N 26°03' W 079°54'510.4
2018-Feb-07 09:00N 26°05' W 079°60'510.0
2018-Feb-07 08:31N 26°05' W 080°05'2 1.8
2018-Feb-07 07:27N 26°06' W 080°07'0 0.0
2018-Feb-07 07:00N 26°06' W 080°07'0 0.0
2018-Feb-07 06:30N 26°06' W 080°07'0 0.0
2018-Feb-07 06:00N 26°06' W 080°07'0 0.0
2018-Feb-07 05:30N 26°06' W 080°07'0 0.0
2018-Feb-07 05:00N 26°06' W 080°07'0 0.0
2018-Feb-07 04:27N 26°06' W 080°07'0 0.0
2018-Feb-07 03:57N 26°06' W 080°07'0 0.0
2018-Feb-07 03:30N 26°06' W 080°07'0 0.0
2018-Feb-07 03:00N 26°06' W 080°07'0 0.0
2018-Feb-07 02:30N 26°06' W 080°07'0 0.0
2018-Feb-07 02:00N 26°06' W 080°07'0 0.0
2018-Feb-07 01:30N 26°06' W 080°07'0 0.0
2018-Feb-07 01:00N 26°06' W 080°07'0 0.0
2018-Feb-07 00:30N 26°06' W 080°07'0 0.0
2018-Feb-07 00:00N 26°06' W 080°07'0 0.0
2018-Feb-06 23:30N 26°06' W 080°07'0 0.0
2018-Feb-06 23:00N 26°06' W 080°07'0 0.0
2018-Feb-06 22:30N 26°06' W 080°07'0 0.0
2018-Feb-06 22:00N 26°06' W 080°07'0 0.0
2018-Feb-06 21:30N 26°06' W 080°07'0 0.0
2018-Feb-06 21:00N 26°06' W 080°07'0 0.0
2018-Feb-06 20:27N 26°06' W 080°07'0 0.0
2018-Feb-06 20:00N 26°06' W 080°07'0 0.0
2018-Feb-06 19:30N 26°06' W 080°07'0 0.0
2018-Feb-06 19:00N 26°06' W 080°07'0 0.0
2018-Feb-06 18:30N 26°06' W 080°07'0 0.0
2018-Feb-06 18:00N 26°06' W 080°07'0 0.0
2018-Feb-06 17:30N 26°06' W 080°07'0 0.0
2018-Feb-06 16:57N 26°06' W 080°07'0 0.0
2018-Feb-06 16:30N 26°06' W 080°07'0 0.0
2018-Feb-06 16:00N 26°06' W 080°07'0 0.0
2018-Feb-06 15:27N 26°06' W 080°07'0 0.0
2018-Feb-06 14:57N 26°06' W 080°07'0 0.0
2018-Feb-06 14:27N 26°06' W 080°07'0 0.0
2018-Feb-06 14:00N 26°06' W 080°07'0 0.0
2018-Feb-06 13:30N 26°06' W 080°07'0 0.0
2018-Feb-06 13:00N 26°06' W 080°07'0 0.0
2018-Feb-06 12:30N 26°06' W 080°07'0 0.0
2018-Feb-06 12:00N 26°06' W 080°07'0 0.0
2018-Feb-06 11:30N 26°06' W 080°07'0 0.0
2018-Feb-06 11:00N 26°06' W 080°07'0 0.0
2018-Feb-06 10:30N 26°06' W 080°07'0 0.0
2018-Feb-06 10:00N 26°06' W 080°07'0 0.0
2018-Feb-06 09:30N 26°06' W 080°07'0 0.0
2018-Feb-06 09:00N 26°06' W 080°07'0 0.0
2018-Feb-06 08:30N 26°06' W 080°07'0 0.0
2018-Feb-06 08:00N 26°06' W 080°07'0 0.0
2018-Feb-06 07:27N 26°06' W 080°07'0 0.0
2018-Feb-06 07:00N 26°06' W 080°07'0 0.0
2018-Feb-06 06:30N 26°06' W 080°07'0 0.0
2018-Feb-06 06:00N 26°06' W 080°07'0 0.0
2018-Feb-06 05:30N 26°06' W 080°07'0 0.0
2018-Feb-06 05:00N 26°06' W 080°07'0 0.0
2018-Feb-06 04:30N 26°06' W 080°07'0 0.0
2018-Feb-06 04:00N 26°06' W 080°07'0 0.0
2018-Feb-06 03:30N 26°06' W 080°07'0 0.0
2018-Feb-06 03:00N 26°06' W 080°07'0 0.0
2018-Feb-06 02:30N 26°06' W 080°07'0 0.0
2018-Feb-06 02:00N 26°06' W 080°07'0 0.0
2018-Feb-06 01:27N 26°06' W 080°07'0 0.0
2018-Feb-06 01:00N 26°06' W 080°07'0 0.0
2018-Feb-06 00:30N 26°06' W 080°07'0 0.0
2018-Feb-06 00:00N 26°06' W 080°07'0 0.0
2018-Feb-05 23:30N 26°06' W 080°07'0 0.0
2018-Feb-05 23:00N 26°06' W 080°07'0 0.0
2018-Feb-05 22:30N 26°06' W 080°07'0 0.0
2018-Feb-05 22:00N 26°06' W 080°07'0 0.0
2018-Feb-05 21:30N 26°06' W 080°07'0 0.0
2018-Feb-05 20:30N 26°06' W 080°07'0 0.0
2018-Feb-05 19:57N 26°06' W 080°07'0 0.0
2018-Feb-05 19:30N 26°06' W 080°07'0 0.0
2018-Feb-05 19:00N 26°06' W 080°07'0 0.0
2018-Feb-05 18:30N 26°06' W 080°07'0 0.0
2018-Feb-05 18:00N 26°06' W 080°07'0 0.0
2018-Feb-05 17:30N 26°06' W 080°07'0 0.0
2018-Feb-05 17:00N 26°06' W 080°07'0 0.0
2018-Feb-05 16:30N 26°06' W 080°07'0 0.0
2018-Feb-05 16:00N 26°06' W 080°07'0 0.0
2018-Feb-05 15:30N 26°06' W 080°07'0 0.0
2018-Feb-05 15:00N 26°06' W 080°07'0 0.0
2018-Feb-05 14:30N 26°06' W 080°07'0 0.0
2018-Feb-05 14:00N 26°06' W 080°07'0 0.0
2018-Feb-05 13:30N 26°06' W 080°07'0 0.0
2018-Feb-05 12:57N 26°06' W 080°07'0 0.0
2018-Feb-05 12:30N 26°06' W 080°07'0 0.0
2018-Feb-05 12:00N 26°06' W 080°07'0 0.0
2018-Feb-05 11:30N 26°06' W 080°07'0 0.0
2018-Feb-05 11:00N 26°06' W 080°07'0 0.0
2018-Feb-05 10:27N 26°06' W 080°07'0 0.0
2018-Feb-05 10:00N 26°06' W 080°07'0 0.0
2018-Feb-05 09:00N 26°06' W 080°07'0 0.0
2018-Feb-05 08:30N 26°06' W 080°07'0 0.0
2018-Feb-05 08:00N 26°06' W 080°07'0 0.0
2018-Feb-05 07:30N 26°06' W 080°07'0 0.0
2018-Feb-05 07:00N 26°06' W 080°07'0 0.0
2018-Feb-05 06:30N 26°06' W 080°07'0 0.0
2018-Feb-05 05:30N 26°06' W 080°07'0 0.0
2018-Feb-05 05:00N 26°06' W 080°07'0 0.0
2018-Feb-05 04:30N 26°06' W 080°07'0 0.0
2018-Feb-05 04:00N 26°06' W 080°07'0 0.0
2018-Feb-05 03:30N 26°06' W 080°07'0 0.0
2018-Feb-05 03:00N 26°06' W 080°07'0 0.0
2018-Feb-05 02:30N 26°06' W 080°07'1 1.2
2018-Feb-05 02:00N 26°06' W 080°07'4 8.4
2018-Feb-05 01:30N 26°05' W 080°02'1 1.0
2018-Feb-05 01:00N 26°04' W 080°02'2 3.6
2018-Feb-05 00:30N 26°04' W 079°60'2 3.4
2018-Feb-05 00:00N 26°03' W 079°58'2 3.1
2018-Feb-04 23:30N 26°03' W 079°57'1 2.3
2018-Feb-04 23:00N 26°02' W 079°57'2 3.2
2018-Feb-04 22:28N 26°03' W 079°55'2 4.7
2018-Feb-04 22:00N 26°04' W 079°54'2 4.3
2018-Feb-04 21:30N 26°05' W 079°52'3 6.1
2018-Feb-04 21:00N 26°06' W 079°48'7 6.6
2018-Feb-04 20:00N 26°05' W 079°41'3 6.6
2018-Feb-04 19:30N 26°05' W 079°37'3 6.2
2018-Feb-04 19:00N 26°07' W 079°34'3 6.6
2018-Feb-04 18:30N 26°09' W 079°31'2 4.6
2018-Feb-04 18:00N 26°11' W 079°30'3 6.9
2018-Feb-04 17:30N 26°14' W 079°30'  

Dump ship's entire track history